createdAt,value
2018-01-21T00:00:44.127Z,3.60
2018-01-21T00:03:10.396Z,3.70
2018-01-21T00:05:36.987Z,3.60
2018-01-21T00:08:04.439Z,3.50
2018-01-21T00:10:31.468Z,3.60
2018-01-21T00:12:57.715Z,3.50
2018-01-21T00:15:23.981Z,3.50
2018-01-21T00:17:50.239Z,3.50
2018-01-21T00:20:16.503Z,3.40
2018-01-21T00:22:42.770Z,3.50
2018-01-21T00:25:09.091Z,3.40
2018-01-21T00:27:35.363Z,3.40
2018-01-21T00:30:01.605Z,3.30
2018-01-21T00:32:27.878Z,3.30
2018-01-21T00:34:54.111Z,3.30
2018-01-21T00:37:20.400Z,3.40
2018-01-21T00:39:46.887Z,3.30
2018-01-21T00:42:14.147Z,3.30
2018-01-21T00:44:40.380Z,3.40
2018-01-21T00:47:06.635Z,3.40
2018-01-21T00:49:32.915Z,3.40
2018-01-21T00:51:59.138Z,3.40
2018-01-21T00:54:25.399Z,3.40
2018-01-21T00:56:51.719Z,3.30
2018-01-21T00:59:17.978Z,3.40
2018-01-21T01:01:44.284Z,3.40
2018-01-21T01:04:10.560Z,3.40
2018-01-21T01:06:38.700Z,3.40
2018-01-21T01:09:05.154Z,3.40
2018-01-21T01:11:31.434Z,3.40
2018-01-21T01:13:57.680Z,3.40
2018-01-21T01:16:23.976Z,3.40
2018-01-21T01:18:50.222Z,3.50
2018-01-21T01:21:16.472Z,3.50
2018-01-21T01:23:42.760Z,3.50
2018-01-21T01:26:09.023Z,3.50
2018-01-21T01:28:35.307Z,3.50
2018-01-21T01:31:01.550Z,3.50
2018-01-21T01:33:27.788Z,3.60
2018-01-21T01:35:54.151Z,3.60
2018-01-21T01:38:20.804Z,3.60
2018-01-21T01:40:47.640Z,3.60
2018-01-21T01:43:20.587Z,3.50
2018-01-21T01:45:51.695Z,3.50
2018-01-21T01:48:19.103Z,3.60
2018-01-21T01:50:45.335Z,3.50
2018-01-21T01:53:26.550Z,3.50
2018-01-21T01:55:52.775Z,3.40
2018-01-21T01:58:20.029Z,3.30
2018-01-21T02:00:46.572Z,3.30
2018-01-21T02:03:12.991Z,3.10
2018-01-21T02:05:39.272Z,3.00
2018-01-21T02:08:06.471Z,3.00
2018-01-21T02:10:32.731Z,3.00
2018-01-21T02:12:59.783Z,3.00
2018-01-21T02:15:26.575Z,3.00
2018-01-21T02:17:53.819Z,3.00
2018-01-21T02:20:20.090Z,3.10
2018-01-21T02:22:46.414Z,3.10
2018-01-21T02:25:12.730Z,3.10
2018-01-21T02:27:39.039Z,3.20
2018-01-21T02:30:05.574Z,3.20
2018-01-21T02:32:31.830Z,3.20
2018-01-21T02:34:58.068Z,3.20
2018-01-21T02:37:24.342Z,3.20
2018-01-21T02:39:50.586Z,3.20
2018-01-21T02:42:16.888Z,3.30
2018-01-21T02:44:43.118Z,3.40
2018-01-21T02:47:09.652Z,3.30
2018-01-21T02:49:35.890Z,3.30
2018-01-21T02:52:02.133Z,3.40
2018-01-21T02:54:29.158Z,3.40
2018-01-21T02:56:55.388Z,3.30
2018-01-21T02:59:22.534Z,3.30
2018-01-21T03:01:48.779Z,3.30
2018-01-21T03:04:15.048Z,3.30
2018-01-21T03:06:41.299Z,3.30
2018-01-21T03:09:07.572Z,3.40
2018-01-21T03:11:34.075Z,3.30
2018-01-21T03:14:15.279Z,3.40
2018-01-21T03:16:41.535Z,3.40
2018-01-21T03:19:08.534Z,3.40
2018-01-21T03:21:35.518Z,3.40
2018-01-21T03:24:01.768Z,3.50
2018-01-21T03:26:28.795Z,3.50
2018-01-21T03:28:55.968Z,3.50
2018-01-21T03:31:22.291Z,3.50
2018-01-21T03:33:49.275Z,3.40
2018-01-21T03:36:15.568Z,3.40
2018-01-21T03:38:41.811Z,3.40
2018-01-21T03:41:08.863Z,3.40
2018-01-21T03:43:35.863Z,3.40
2018-01-21T03:46:02.139Z,3.40
2018-01-21T03:48:29.134Z,3.40
2018-01-21T03:50:55.615Z,3.40
2018-01-21T03:53:21.840Z,3.40
2018-01-21T03:55:48.116Z,3.40
2018-01-21T03:58:14.402Z,3.30
2018-01-21T04:00:40.663Z,3.30
2018-01-21T04:03:07.699Z,3.30
2018-01-21T04:05:34.675Z,3.20
2018-01-21T04:08:01.548Z,3.20
2018-01-21T04:10:28.570Z,3.10
2018-01-21T04:12:55.736Z,3.10
2018-01-21T04:15:22.019Z,3.10
2018-01-21T04:17:48.298Z,3.00
2018-01-21T04:20:15.736Z,3.00
2018-01-21T04:22:43.126Z,3.10
2018-01-21T04:25:10.002Z,3.00
2018-01-21T04:27:37.047Z,3.10
2018-01-21T04:30:04.099Z,3.10
2018-01-21T04:32:30.327Z,3.10
2018-01-21T04:34:56.624Z,3.20
2018-01-21T04:37:23.823Z,3.20
2018-01-21T04:39:50.107Z,3.30
2018-01-21T04:42:16.359Z,3.30
2018-01-21T04:44:42.783Z,3.30
2018-01-21T04:47:09.731Z,3.20
2018-01-21T04:49:36.016Z,3.30
2018-01-21T04:52:02.314Z,3.40
2018-01-21T04:54:28.602Z,3.40
2018-01-21T04:56:54.911Z,3.30
2018-01-21T04:59:21.191Z,3.20
2018-01-21T05:01:47.822Z,3.20
2018-01-21T05:04:14.126Z,3.20
2018-01-21T05:06:44.404Z,3.00
2018-01-21T05:09:10.684Z,3.00
2018-01-21T05:11:36.936Z,3.00
2018-01-21T05:14:03.218Z,2.90
2018-01-21T05:16:29.464Z,2.90
2018-01-21T05:18:56.435Z,2.90
2018-01-21T05:21:22.705Z,2.90
2018-01-21T05:23:49.904Z,3.00
2018-01-21T05:26:17.270Z,2.90
2018-01-21T05:28:43.519Z,2.90
2018-01-21T05:31:10.815Z,2.90
2018-01-21T05:33:38.229Z,2.90
2018-01-21T05:36:05.521Z,2.80
2018-01-21T05:38:33.014Z,2.80
2018-01-21T05:40:59.319Z,2.80
2018-01-21T05:43:25.546Z,2.80
2018-01-21T05:45:52.966Z,2.80
2018-01-21T05:48:20.257Z,2.80
2018-01-21T05:50:47.716Z,2.80
2018-01-21T05:53:14.745Z,2.80
2018-01-21T05:55:41.675Z,2.80
2018-01-21T05:58:07.974Z,2.80
2018-01-21T06:00:34.967Z,2.80
2018-01-21T06:03:01.623Z,2.80
2018-01-21T06:05:28.340Z,2.90
2018-01-21T06:07:54.948Z,2.90
2018-01-21T06:10:21.324Z,2.90
2018-01-21T06:12:47.572Z,2.90
2018-01-21T06:15:14.730Z,2.80
2018-01-21T06:17:47.883Z,2.80
2018-01-21T06:20:15.231Z,2.80
2018-01-21T06:22:41.843Z,2.80
2018-01-21T06:25:08.134Z,2.70
2018-01-21T06:27:34.391Z,2.70
2018-01-21T06:30:01.418Z,2.80
2018-01-21T06:32:27.707Z,2.70
2018-01-21T06:34:54.971Z,2.70
2018-01-21T06:37:22.371Z,2.60
2018-01-21T06:39:49.387Z,2.60
2018-01-21T06:42:15.648Z,2.50
2018-01-21T06:44:42.834Z,2.60
2018-01-21T06:47:09.105Z,2.50
2018-01-21T06:49:35.356Z,2.50
2018-01-21T06:52:01.683Z,2.60
2018-01-21T06:54:27.934Z,2.60
2018-01-21T06:56:54.179Z,2.60
2018-01-21T06:59:20.451Z,2.60
2018-01-21T07:01:46.711Z,2.50
2018-01-21T07:04:13.234Z,2.50
2018-01-21T07:06:39.763Z,2.50
2018-01-21T07:09:06.043Z,2.50
2018-01-21T07:11:33.823Z,2.50
2018-01-21T07:14:00.214Z,2.50
2018-01-21T07:16:26.518Z,2.60
2018-01-21T07:18:54.126Z,2.70
2018-01-21T07:21:20.660Z,2.70
2018-01-21T07:23:46.892Z,2.80
2018-01-21T07:26:13.159Z,2.80
2018-01-21T07:28:44.278Z,2.80
2018-01-21T07:31:10.546Z,2.70
2018-01-21T07:33:37.703Z,2.70
2018-01-21T07:36:03.947Z,2.60
2018-01-21T07:38:30.198Z,2.60
2018-01-21T07:40:56.456Z,2.70
2018-01-21T07:43:22.843Z,2.70
2018-01-21T07:45:49.978Z,2.70
2018-01-21T07:48:16.240Z,2.70
2018-01-21T07:50:42.543Z,2.70
2018-01-21T07:53:08.834Z,2.80
2018-01-21T07:55:35.651Z,2.80
2018-01-21T07:58:04.804Z,2.80
2018-01-21T08:00:34.205Z,2.80
2018-01-21T08:03:00.629Z,2.90
2018-01-21T08:05:26.885Z,2.90
2018-01-21T08:10:47.352Z,2.80
2018-01-21T08:13:13.663Z,2.90
2018-01-21T08:15:45.025Z,2.90
2018-01-21T08:18:11.279Z,2.90
2018-01-21T08:20:37.551Z,2.90
2018-01-21T08:23:03.828Z,3.00
2018-01-21T08:25:30.106Z,3.00
2018-01-21T08:27:56.418Z,3.10
2018-01-21T08:30:22.701Z,3.20
2018-01-21T08:32:49.296Z,3.30
2018-01-21T08:35:21.662Z,3.30
2018-01-21T08:38:04.326Z,3.30
2018-01-21T08:40:36.643Z,3.40
2018-01-21T08:43:02.915Z,3.40
2018-01-21T08:45:30.148Z,3.40
2018-01-21T08:47:57.155Z,3.50
2018-01-21T08:50:23.886Z,3.50
2018-01-21T08:52:58.184Z,3.60
2018-01-21T08:55:25.383Z,3.50
2018-01-21T08:57:51.739Z,3.60
2018-01-21T09:00:18.217Z,3.50
2018-01-21T09:02:50.139Z,3.50
2018-01-21T09:05:17.087Z,3.60
2018-01-21T09:07:44.207Z,3.60
2018-01-21T09:10:10.590Z,3.60
2018-01-21T09:12:38.426Z,3.60
2018-01-21T09:15:05.552Z,3.60
2018-01-21T09:17:31.863Z,3.70
2018-01-21T09:19:58.120Z,3.70
2018-01-21T09:22:24.347Z,3.70
2018-01-21T09:27:30.615Z,3.60
2018-01-21T09:29:56.919Z,3.70
2018-01-21T09:32:23.156Z,3.70
2018-01-21T09:34:49.395Z,4.00
2018-01-21T09:37:15.661Z,4.00
2018-01-21T09:39:43.483Z,4.00
2018-01-21T09:42:09.742Z,4.00
2018-01-21T09:44:38.994Z,4.00
2018-01-21T09:47:05.283Z,3.90
2018-01-21T09:49:31.522Z,4.10
2018-01-21T09:51:58.675Z,4.30
2018-01-21T09:54:25.611Z,4.40
2018-01-21T09:56:53.840Z,4.70
2018-01-21T09:59:20.079Z,4.90
2018-01-21T10:01:46.358Z,4.90
2018-01-21T10:04:12.588Z,4.80
2018-01-21T10:06:38.831Z,4.80
2018-01-21T10:09:05.091Z,4.80
2018-01-21T10:11:31.343Z,4.90
2018-01-21T10:14:01.516Z,4.80
2018-01-21T10:16:28.064Z,4.70
2018-01-21T10:18:54.475Z,4.70
2018-01-21T10:21:20.711Z,4.80
2018-01-21T10:23:46.960Z,4.90
2018-01-21T10:26:13.205Z,4.90
2018-01-21T10:28:40.329Z,5.10
2018-01-21T10:31:06.695Z,5.10
2018-01-21T10:33:41.490Z,5.00
2018-01-21T10:36:08.932Z,4.80
2018-01-21T10:38:35.208Z,4.80
2018-01-21T10:41:01.462Z,4.80
2018-01-21T10:43:27.771Z,4.80
2018-01-21T10:45:54.785Z,5.10
2018-01-21T10:48:21.015Z,5.10
2018-01-21T10:50:47.311Z,5.10
2018-01-21T10:53:13.563Z,5.20
2018-01-21T10:55:39.883Z,5.30
2018-01-21T10:58:06.130Z,5.40
2018-01-21T11:00:38.423Z,5.40
2018-01-21T11:03:04.791Z,5.40
2018-01-21T11:05:31.060Z,5.30
2018-01-21T11:07:57.323Z,5.30
2018-01-21T11:10:23.595Z,5.50
2018-01-21T11:12:49.843Z,5.50
2018-01-21T11:15:16.175Z,5.40
2018-01-21T11:17:42.390Z,5.60
2018-01-21T11:20:11.478Z,5.70
2018-01-21T11:22:37.770Z,5.90
2018-01-21T11:25:04.779Z,5.80
2018-01-21T11:27:31.138Z,5.80
2018-01-21T11:29:57.438Z,5.80
2018-01-21T11:32:23.662Z,5.70
2018-01-21T11:34:49.879Z,5.70
2018-01-21T11:37:16.148Z,5.70
2018-01-21T11:39:42.391Z,5.50
2018-01-21T11:42:08.694Z,5.70
2018-01-21T11:44:37.298Z,5.70
2018-01-21T11:47:03.599Z,5.80
2018-01-21T11:49:36.139Z,5.60
2018-01-21T11:52:02.412Z,5.60
2018-01-21T11:54:31.198Z,5.70
2018-01-21T11:56:57.644Z,5.80
2018-01-21T11:59:28.182Z,5.80
2018-01-21T12:01:58.603Z,5.80
2018-01-21T12:04:39.214Z,5.90
2018-01-21T12:07:06.481Z,6.10
2018-01-21T12:09:33.499Z,6.10
2018-01-21T12:11:59.745Z,6.00
2018-01-21T12:14:26.015Z,6.10
2018-01-21T12:16:52.259Z,6.30
2018-01-21T12:19:18.542Z,6.20
2018-01-21T12:21:45.550Z,6.20
2018-01-21T12:24:11.806Z,6.20
2018-01-21T12:26:38.352Z,6.20
2018-01-21T12:29:05.371Z,6.30
2018-01-21T12:31:31.621Z,6.20
2018-01-21T12:33:58.470Z,6.20
2018-01-21T12:36:24.742Z,6.10
2018-01-21T12:38:50.975Z,6.00
2018-01-21T12:41:17.248Z,5.80
2018-01-21T12:43:43.502Z,5.70
2018-01-21T12:46:10.515Z,5.70
2018-01-21T12:48:36.755Z,5.70
2018-01-21T12:51:03.015Z,5.80
2018-01-21T12:53:29.258Z,5.70
2018-01-21T12:55:56.191Z,5.80
2018-01-21T12:58:22.436Z,5.90
2018-01-21T13:00:48.697Z,5.90
2018-01-21T13:03:14.991Z,6.00
2018-01-21T13:05:41.218Z,6.40
2018-01-21T13:08:07.663Z,6.70
2018-01-21T13:10:34.199Z,7.00
2018-01-21T13:13:00.634Z,7.20
2018-01-21T13:15:27.643Z,7.60
2018-01-21T13:17:54.199Z,7.60
2018-01-21T13:20:20.430Z,7.50
2018-01-21T13:22:46.744Z,7.50
2018-01-21T13:25:12.968Z,7.30
2018-01-21T13:27:39.214Z,6.90
2018-01-21T13:30:05.571Z,6.70
2018-01-21T13:32:31.810Z,6.60
2018-01-21T13:34:58.263Z,6.70
2018-01-21T13:37:24.484Z,6.70
2018-01-21T13:39:52.663Z,6.80
2018-01-21T13:42:20.914Z,7.00
2018-01-21T13:44:48.290Z,6.80
2018-01-21T13:47:14.519Z,6.70
2018-01-21T13:49:40.783Z,6.60
2018-01-21T13:52:07.768Z,7.10
2018-01-21T13:54:34.015Z,7.00
2018-01-21T13:57:00.256Z,7.10
2018-01-21T13:59:26.527Z,7.10
2018-01-21T14:01:52.807Z,7.20
2018-01-21T14:04:19.142Z,6.90
2018-01-21T14:06:45.388Z,7.00
2018-01-21T14:09:12.354Z,7.40
2018-01-21T14:11:38.975Z,7.40
2018-01-21T14:14:05.212Z,7.10
2018-01-21T14:16:31.513Z,7.00
2018-01-21T14:18:58.525Z,6.80
2018-01-21T14:21:27.049Z,6.70
2018-01-21T14:23:53.603Z,6.40
2018-01-21T14:26:19.831Z,6.30
2018-01-21T14:28:46.054Z,6.40
2018-01-21T14:31:12.287Z,6.40
2018-01-21T14:33:38.718Z,6.30
2018-01-21T14:36:04.975Z,6.30
2018-01-21T14:38:31.975Z,6.20
2018-01-21T14:40:58.187Z,6.20
2018-01-21T14:43:24.422Z,6.00
2018-01-21T14:45:50.648Z,5.90
2018-01-21T14:48:16.911Z,5.80
2018-01-21T14:50:43.130Z,5.80
2018-01-21T14:53:09.338Z,5.70
2018-01-21T14:55:35.892Z,5.70
2018-01-21T14:58:02.123Z,5.60
2018-01-21T15:00:28.376Z,5.50
2018-01-21T15:02:54.615Z,5.60
2018-01-21T15:05:21.599Z,5.70
2018-01-21T15:07:48.551Z,5.60
2018-01-21T15:10:14.831Z,5.50
2018-01-21T15:12:41.094Z,5.50
2018-01-21T15:15:07.343Z,5.50
2018-01-21T15:17:35.110Z,5.50
2018-01-21T15:20:01.338Z,5.60
2018-01-21T15:22:27.591Z,5.40
2018-01-21T15:24:53.822Z,5.40
2018-01-21T15:27:20.058Z,5.40
2018-01-21T15:29:46.359Z,5.30
2018-01-21T15:32:12.610Z,5.30
2018-01-21T15:34:38.921Z,5.30
2018-01-21T15:37:05.155Z,5.30
2018-01-21T15:39:31.383Z,5.30
2018-01-21T15:45:26.478Z,5.20
2018-01-21T15:47:53.456Z,5.10
2018-01-21T15:50:19.734Z,5.10
2018-01-21T15:52:45.990Z,5.10
2018-01-21T15:55:12.999Z,5.00
2018-01-21T15:57:39.363Z,5.00
2018-01-21T16:00:05.652Z,5.00
2018-01-21T16:02:31.886Z,5.00
2018-01-21T16:04:58.222Z,4.90
2018-01-21T16:07:24.547Z,4.90
2018-01-21T16:09:50.764Z,4.80
2018-01-21T16:12:17.153Z,4.80
2018-01-21T16:14:43.387Z,4.80
2018-01-21T16:17:11.418Z,4.70
2018-01-21T16:19:37.683Z,4.60
2018-01-21T16:22:03.960Z,4.60
2018-01-21T16:24:30.923Z,4.60
2018-01-21T16:26:57.314Z,4.60
2018-01-21T16:29:24.305Z,4.60
2018-01-21T16:31:50.602Z,4.60
2018-01-21T16:34:17.370Z,4.60
2018-01-21T16:36:43.835Z,4.60
2018-01-21T16:39:10.119Z,4.60
2018-01-21T16:41:36.764Z,4.60
2018-01-21T16:44:03.987Z,4.50
2018-01-21T16:46:30.692Z,4.60
2018-01-21T16:48:57.252Z,4.50
2018-01-21T16:51:23.507Z,4.50
2018-01-21T16:53:50.537Z,4.40
2018-01-21T16:56:16.750Z,4.40
2018-01-21T16:58:42.995Z,4.40
2018-01-21T17:01:09.266Z,4.40
2018-01-21T17:03:35.512Z,4.40
2018-01-21T17:06:01.864Z,4.40
2018-01-21T17:08:33.010Z,4.30
2018-01-21T17:10:59.284Z,4.30
2018-01-21T17:13:25.510Z,4.30
2018-01-21T17:15:51.891Z,4.30
2018-01-21T17:18:18.189Z,4.20
2018-01-21T17:20:44.473Z,4.10
2018-01-21T17:23:10.706Z,4.20
2018-01-21T17:25:36.926Z,4.10
2018-01-21T17:28:03.188Z,4.10
2018-01-21T17:30:31.281Z,4.10
2018-01-21T17:32:58.236Z,4.10
2018-01-21T17:35:24.507Z,4.10
2018-01-21T17:37:50.775Z,4.10
2018-01-21T17:40:17.025Z,4.20
2018-01-21T17:42:43.447Z,4.10
2018-01-21T17:45:11.208Z,4.10
2018-01-21T17:47:37.540Z,4.10
2018-01-21T17:50:04.363Z,4.20
2018-01-21T17:52:30.582Z,4.10
2018-01-21T17:54:56.852Z,4.10
2018-01-21T17:57:23.172Z,4.10
2018-01-21T17:59:49.410Z,4.20
2018-01-21T18:02:15.649Z,4.30
2018-01-21T18:04:42.769Z,4.20
2018-01-21T18:07:09.927Z,4.20
2018-01-21T18:09:36.154Z,4.10
2018-01-21T18:12:03.106Z,4.10
2018-01-21T18:14:29.345Z,4.00
2018-01-21T18:16:55.643Z,4.00
2018-01-21T18:19:21.899Z,3.90
2018-01-21T18:21:48.198Z,3.90
2018-01-21T18:24:14.575Z,3.90
2018-01-21T18:26:40.820Z,3.90
2018-01-21T18:29:07.827Z,3.90
2018-01-21T18:31:34.158Z,3.80
2018-01-21T18:34:00.439Z,3.90
2018-01-21T18:36:26.692Z,3.90
2018-01-21T18:38:53.795Z,4.00
2018-01-21T18:41:20.007Z,3.90
2018-01-21T18:43:49.393Z,4.00
2018-01-21T18:46:15.634Z,4.00
2018-01-21T18:48:41.845Z,4.00
2018-01-21T18:51:08.180Z,3.90
2018-01-21T18:53:34.413Z,3.90
2018-01-21T18:56:00.655Z,3.90
2018-01-21T18:58:26.883Z,3.90
2018-01-21T19:00:53.153Z,4.00
2018-01-21T19:03:20.192Z,3.90
2018-01-21T19:05:47.358Z,3.90
2018-01-21T19:08:13.583Z,3.90
2018-01-21T19:10:39.887Z,3.90
2018-01-21T19:13:06.167Z,3.90
2018-01-21T19:15:32.463Z,4.00
2018-01-21T19:17:58.767Z,4.00
2018-01-21T19:20:25.014Z,4.00
2018-01-21T19:22:52.026Z,4.00
2018-01-21T19:25:19.029Z,4.00
2018-01-21T19:27:45.432Z,4.00
2018-01-21T19:30:11.682Z,4.10
2018-01-21T19:32:38.022Z,4.10
2018-01-21T19:35:04.251Z,4.10
2018-01-21T19:37:30.691Z,4.10
2018-01-21T19:39:59.942Z,4.10
2018-01-21T19:45:27.115Z,4.10
2018-01-21T19:47:54.246Z,4.10
2018-01-21T19:50:20.515Z,4.10
2018-01-21T19:52:46.794Z,4.10
2018-01-21T19:55:13.555Z,4.20
2018-01-21T19:57:42.295Z,4.10
2018-01-21T20:00:08.611Z,4.10
2018-01-21T20:02:34.851Z,4.10
2018-01-21T20:05:01.194Z,4.00
2018-01-21T20:07:27.448Z,4.10
2018-01-21T20:09:55.087Z,4.10
2018-01-21T20:12:21.372Z,4.10
2018-01-21T20:14:48.990Z,4.00
2018-01-21T20:17:15.245Z,4.00
2018-01-21T20:19:41.478Z,3.90
2018-01-21T20:22:08.063Z,4.00
2018-01-21T20:24:34.828Z,4.00
2018-01-21T20:27:01.119Z,4.00
2018-01-21T20:29:27.418Z,4.00
2018-01-21T20:31:54.428Z,4.00
2018-01-21T20:34:20.707Z,3.90
2018-01-21T20:36:46.960Z,3.90
2018-01-21T20:39:13.199Z,4.00
2018-01-21T20:41:39.470Z,4.10
2018-01-21T20:44:05.783Z,4.20
2018-01-21T20:46:32.047Z,4.20
2018-01-21T20:48:58.299Z,4.30
2018-01-21T20:51:30.724Z,4.20
2018-01-21T20:54:13.774Z,4.20
2018-01-21T20:56:40.019Z,4.20
2018-01-21T20:59:06.275Z,4.20
2018-01-21T21:01:33.243Z,4.30
2018-01-21T21:03:59.459Z,4.30
2018-01-21T21:06:25.752Z,4.30
2018-01-21T21:08:51.990Z,4.30
2018-01-21T21:11:18.291Z,4.40
2018-01-21T21:13:44.544Z,4.40
2018-01-21T21:16:10.855Z,4.40
2018-01-21T21:18:37.087Z,4.50
2018-01-21T21:21:03.375Z,4.50
2018-01-21T21:23:29.725Z,4.40
2018-01-21T21:25:56.195Z,4.50
2018-01-21T21:28:22.435Z,4.50
2018-01-21T21:30:48.855Z,4.50
2018-01-21T21:33:15.181Z,4.50
2018-01-21T21:35:41.507Z,4.60
2018-01-21T21:38:09.001Z,4.60
2018-01-21T21:40:35.263Z,4.60
2018-01-21T21:43:04.532Z,4.60
2018-01-21T21:45:31.280Z,4.50
2018-01-21T21:47:57.508Z,4.50
2018-01-21T21:50:23.840Z,4.50
2018-01-21T21:52:50.087Z,4.30
2018-01-21T21:55:16.391Z,4.40
2018-01-21T21:57:42.627Z,4.30
2018-01-21T22:00:08.974Z,4.20
2018-01-21T22:05:10.027Z,4.00
2018-01-21T22:07:36.257Z,4.00
2018-01-21T22:10:02.544Z,4.00
2018-01-21T22:12:28.791Z,4.00
2018-01-21T22:14:58.730Z,4.00
2018-01-21T22:17:24.984Z,4.00
2018-01-21T22:19:51.962Z,4.00
2018-01-21T22:22:18.207Z,4.00
2018-01-21T22:24:44.427Z,3.90
2018-01-21T22:27:10.663Z,3.90
2018-01-21T22:29:37.127Z,3.90
2018-01-21T22:32:03.432Z,4.00
2018-01-21T22:34:29.662Z,3.90
2018-01-21T22:36:55.967Z,3.90
2018-01-21T22:39:22.947Z,3.80
2018-01-21T22:41:49.175Z,3.70
2018-01-21T22:44:15.468Z,3.70
2018-01-21T22:46:41.695Z,3.60
2018-01-21T22:49:11.751Z,3.50
2018-01-21T22:51:37.970Z,3.50
2018-01-21T22:54:04.287Z,3.50
2018-01-21T22:56:31.252Z,3.50
2018-01-21T22:58:57.519Z,3.50
2018-01-21T23:01:23.786Z,3.60
2018-01-21T23:03:50.791Z,3.50
2018-01-21T23:06:17.048Z,3.50
2018-01-21T23:08:43.299Z,3.50
2018-01-21T23:11:09.919Z,3.50
2018-01-21T23:13:36.158Z,3.50
2018-01-21T23:16:03.168Z,3.40
2018-01-21T23:18:29.418Z,3.40
2018-01-21T23:21:00.630Z,3.40
2018-01-21T23:23:26.862Z,3.40
2018-01-21T23:25:53.126Z,3.40
2018-01-21T23:28:19.372Z,3.30
2018-01-21T23:30:45.646Z,3.20
2018-01-21T23:33:11.858Z,3.30
2018-01-21T23:35:38.098Z,3.30
2018-01-21T23:38:05.131Z,3.30
2018-01-21T23:40:31.655Z,3.30
2018-01-21T23:42:57.895Z,3.30
2018-01-21T23:45:24.878Z,3.30
2018-01-21T23:47:51.154Z,3.30
2018-01-21T23:50:17.399Z,3.30
2018-01-21T23:52:43.671Z,3.30
2018-01-21T23:55:09.923Z,3.20
2018-01-21T23:57:36.196Z,3.30
